Time;durP1;ratioP1;P1;durP2;ratioP2;P2;SDS_P1;SDS_P2;PMS_P1;PMS_P2;Temp;Humidity;BMP_temperature;BMP_pressure;BME280_temperature;BME280_humidity;BME280_pressure;Samples;Min_cycle;Max_cycle;Signal;HPM_P1;HPM_P2
2020/12/24 00:00:00;;;;;;;;;;;21.50;53.80;;;;;;5071008;28;992;-65
2020/12/24 00:02:26;;;;;;;;;;;21.50;53.90;;;;;;5052771;28;1270;-65
2020/12/24 00:04:51;;;;;;;;;;;21.40;53.90;;;;;;5052665;28;1213;-65
2020/12/24 00:07:17;;;;;;;;;;;21.40;53.90;;;;;;5070296;28;1969;-66
2020/12/24 00:09:44;;;;;;;;;;;21.40;54.00;;;;;;5070638;28;1192;-65
2020/12/24 00:12:10;;;;;;;;;;;21.40;54.00;;;;;;5054084;28;1308;-65
2020/12/24 00:14:36;;;;;;;;;;;21.40;54.00;;;;;;5070490;28;1035;-65
2020/12/24 00:17:01;;;;;;;;;;;21.40;54.10;;;;;;5070404;28;1361;-65
2020/12/24 00:19:27;;;;;;;;;;;21.40;54.10;;;;;;5071350;28;1251;-65
2020/12/24 00:21:52;;;;;;;;;;;21.30;54.10;;;;;;5070450;28;1283;-65
2020/12/24 00:24:18;;;;;;;;;;;21.30;54.10;;;;;;5070563;28;1264;-65
2020/12/24 00:26:43;;;;;;;;;;;21.30;54.20;;;;;;5070689;28;1879;-65
2020/12/24 00:29:10;;;;;;;;;;;21.30;54.20;;;;;;5052658;28;1329;-66
2020/12/24 00:31:36;;;;;;;;;;;21.30;54.20;;;;;;5070889;28;1346;-65
2020/12/24 00:34:01;;;;;;;;;;;21.20;54.20;;;;;;5070578;28;1243;-65
2020/12/24 00:36:27;;;;;;;;;;;21.30;54.30;;;;;;5051862;28;1387;-65
2020/12/24 00:38:52;;;;;;;;;;;21.20;54.30;;;;;;5070463;28;1159;-65
2020/12/24 00:41:19;;;;;;;;;;;21.20;54.30;;;;;;5070063;28;1263;-65
2020/12/24 00:43:45;;;;;;;;;;;21.20;54.40;;;;;;5070242;28;1276;-65
2020/12/24 00:46:10;;;;;;;;;;;21.20;54.40;;;;;;5070367;28;1890;-65
2020/12/24 00:48:36;;;;;;;;;;;21.20;54.40;;;;;;5070780;28;1238;-65
2020/12/24 00:51:01;;;;;;;;;;;21.20;54.40;;;;;;5070042;28;1019;-65
2020/12/24 00:53:27;;;;;;;;;;;21.20;54.40;;;;;;5052280;28;1232;-65
2020/12/24 00:55:52;;;;;;;;;;;21.20;54.50;;;;;;5070369;28;1351;-66
2020/12/24 00:58:18;;;;;;;;;;;21.10;54.40;;;;;;5070567;28;1265;-65
2020/12/24 01:00:43;;;;;;;;;;;21.10;54.50;;;;;;5073896;28;1240;-65
2020/12/24 01:03:08;;;;;;;;;;;21.10;54.50;;;;;;5073020;28;1253;-65
2020/12/24 01:05:34;;;;;;;;;;;21.10;54.60;;;;;;5071021;28;2474;-65
2020/12/24 01:08:00;;;;;;;;;;;21.10;54.60;;;;;;5074219;28;1071;-65
2020/12/24 01:10:25;;;;;;;;;;;21.10;54.60;;;;;;5074275;28;1086;-65
2020/12/24 01:12:51;;;;;;;;;;;21.10;54.70;;;;;;5073690;28;1263;-65
2020/12/24 01:15:16;;;;;;;;;;;21.10;54.70;;;;;;5073824;28;1316;-65
2020/12/24 01:17:42;;;;;;;;;;;21.00;54.70;;;;;;5073404;28;1289;-65
2020/12/24 01:20:07;;;;;;;;;;;21.00;54.70;;;;;;5073810;28;1307;-65
2020/12/24 01:22:33;;;;;;;;;;;21.00;54.70;;;;;;5073873;28;1303;-65
2020/12/24 01:24:58;;;;;;;;;;;21.00;54.70;;;;;;5073133;28;1308;-65
2020/12/24 01:27:24;;;;;;;;;;;21.00;54.70;;;;;;5074446;28;1953;-65
2020/12/24 01:29:49;;;;;;;;;;;21.00;54.70;;;;;;5074521;28;1311;-65
2020/12/24 01:32:16;;;;;;;;;;;21.00;54.80;;;;;;5075594;28;1255;-65
2020/12/24 01:34:42;;;;;;;;;;;21.00;54.80;;;;;;5073100;28;1284;-65
2020/12/24 01:37:07;;;;;;;;;;;21.00;54.80;;;;;;5073050;28;1314;-65
2020/12/24 01:39:33;;;;;;;;;;;21.00;54.90;;;;;;5073520;28;1319;-65
2020/12/24 01:41:58;;;;;;;;;;;21.00;54.90;;;;;;5073502;28;1262;-65
2020/12/24 01:44:24;;;;;;;;;;;21.00;54.90;;;;;;5072607;28;1244;-65
2020/12/24 01:46:49;;;;;;;;;;;20.90;54.90;;;;;;5073217;28;1902;-65
2020/12/24 01:49:15;;;;;;;;;;;20.90;54.90;;;;;;5073490;28;1263;-65
2020/12/24 01:51:43;;;;;;;;;;;20.90;54.90;;;;;;5072482;28;1221;-65
2020/12/24 01:54:09;;;;;;;;;;;20.90;54.90;;;;;;5055611;28;1278;-65
2020/12/24 01:56:34;;;;;;;;;;;20.90;55.00;;;;;;5055950;28;1311;-65
2020/12/24 01:59:00;;;;;;;;;;;20.90;55.00;;;;;;5035925;28;1420;-65
2020/12/24 02:01:25;;;;;;;;;;;20.90;55.00;;;;;;5051161;28;1335;-65
2020/12/24 02:03:51;;;;;;;;;;;20.90;55.00;;;;;;5073810;28;1095;-65
2020/12/24 02:06:16;;;;;;;;;;;20.90;55.10;;;;;;5073377;28;1913;-65
2020/12/24 02:08:42;;;;;;;;;;;20.90;55.10;;;;;;5056149;28;1351;-65
2020/12/24 02:11:07;;;;;;;;;;;20.90;55.20;;;;;;5052908;28;1489;-66
2020/12/24 02:13:33;;;;;;;;;;;20.90;55.20;;;;;;5071264;28;1296;-67
2020/12/24 02:15:58;;;;;;;;;;;20.80;55.10;;;;;;5071603;28;1320;-67
2020/12/24 02:18:25;;;;;;;;;;;20.80;55.10;;;;;;5073630;28;1272;-66
2020/12/24 02:20:50;;;;;;;;;;;20.80;55.20;;;;;;5053338;28;1176;-66
2020/12/24 02:23:16;;;;;;;;;;;20.80;55.20;;;;;;5071582;28;1269;-67
2020/12/24 02:25:41;;;;;;;;;;;20.80;55.20;;;;;;5070737;28;1906;-67
2020/12/24 02:28:07;;;;;;;;;;;20.80;55.20;;;;;;5071049;28;1594;-67
2020/12/24 02:30:33;;;;;;;;;;;20.80;55.30;;;;;;5071602;28;1317;-67
2020/12/24 02:32:58;;;;;;;;;;;20.80;55.20;;;;;;5070987;28;1336;-67
2020/12/24 02:35:24;;;;;;;;;;;20.80;55.30;;;;;;5053151;28;1485;-67
2020/12/24 02:37:49;;;;;;;;;;;20.80;55.30;;;;;;5071100;28;1320;-67
2020/12/24 02:40:15;;;;;;;;;;;20.80;55.30;;;;;;5053304;28;1359;-68
2020/12/24 02:42:40;;;;;;;;;;;20.70;55.30;;;;;;5071068;28;1272;-68
2020/12/24 02:45:06;;;;;;;;;;;20.70;55.30;;;;;;5070891;28;1394;-67
2020/12/24 02:47:31;;;;;;;;;;;20.70;55.30;;;;;;5070844;28;1971;-67
2020/12/24 02:49:57;;;;;;;;;;;20.80;55.40;;;;;;5029270;28;1554;-67
2020/12/24 02:52:23;;;;;;;;;;;20.70;55.30;;;;;;5068523;28;1308;-67
2020/12/24 02:54:48;;;;;;;;;;;20.70;55.30;;;;;;5072670;28;1330;-66
2020/12/24 02:57:14;;;;;;;;;;;20.70;55.40;;;;;;5072495;28;1369;-66
2020/12/24 02:59:39;;;;;;;;;;;20.70;55.40;;;;;;5072968;28;1359;-67
2020/12/24 03:02:05;;;;;;;;;;;20.70;55.40;;;;;;5073152;28;1060;-67
2020/12/24 03:04:30;;;;;;;;;;;20.70;55.40;;;;;;5072616;28;1263;-67
2020/12/24 03:06:56;;;;;;;;;;;20.70;55.40;;;;;;5072067;28;1906;-67
2020/12/24 03:09:21;;;;;;;;;;;20.70;55.40;;;;;;5072397;28;1319;-67
2020/12/24 03:11:50;;;;;;;;;;;20.70;55.40;;;;;;5072691;28;1273;-67
2020/12/24 03:14:18;;;;;;;;;;;20.70;55.40;;;;;;5072196;28;1127;-68
2020/12/24 03:16:44;;;;;;;;;;;20.70;55.50;;;;;;5054563;28;1332;-68
2020/12/24 03:19:09;;;;;;;;;;;20.70;55.50;;;;;;5071941;28;1329;-68
2020/12/24 03:21:35;;;;;;;;;;;20.70;55.50;;;;;;5072155;28;1263;-68
2020/12/24 03:24:00;;;;;;;;;;;20.60;55.40;;;;;;5071951;28;1303;-68
2020/12/24 03:26:26;;;;;;;;;;;20.70;55.50;;;;;;5053664;28;1957;-68
2020/12/24 03:28:51;;;;;;;;;;;20.70;55.60;;;;;;5072616;28;1364;-68
2020/12/24 03:31:20;;;;;;;;;;;20.70;55.50;;;;;;5072719;28;1320;-67
2020/12/24 03:33:45;;;;;;;;;;;20.70;55.50;;;;;;5072098;28;1312;-67
2020/12/24 03:36:11;;;;;;;;;;;20.70;55.50;;;;;;5071789;28;1367;-66
2020/12/24 03:38:36;;;;;;;;;;;20.70;55.60;;;;;;5054999;28;1291;-67
2020/12/24 03:41:02;;;;;;;;;;;20.60;55.50;;;;;;5072574;28;1287;-67
2020/12/24 03:43:27;;;;;;;;;;;20.60;55.50;;;;;;5072970;28;1369;-67
2020/12/24 03:45:53;;;;;;;;;;;20.60;55.60;;;;;;5053778;28;1902;-67
2020/12/24 03:48:18;;;;;;;;;;;20.60;55.60;;;;;;5054523;28;1275;-67
2020/12/24 03:50:44;;;;;;;;;;;20.60;55.60;;;;;;5054747;28;1241;-67
2020/12/24 03:53:09;;;;;;;;;;;20.60;55.60;;;;;;5071895;28;1307;-68
2020/12/24 03:55:34;;;;;;;;;;;20.60;55.60;;;;;;5071390;28;1350;-68
2020/12/24 03:58:00;;;;;;;;;;;20.60;55.60;;;;;;5072047;28;1224;-68
2020/12/24 04:00:25;;;;;;;;;;;20.60;55.60;;;;;;5072497;28;1274;-68
2020/12/24 04:02:51;;;;;;;;;;;20.60;55.60;;;;;;5071817;28;1332;-67
2020/12/24 04:05:16;;;;;;;;;;;20.60;55.60;;;;;;5053704;28;1343;-66
2020/12/24 04:07:42;;;;;;;;;;;20.60;55.60;;;;;;5071940;28;1906;-66
2020/12/24 04:10:07;;;;;;;;;;;20.60;55.60;;;;;;5071581;28;1222;-66
2020/12/24 04:12:33;;;;;;;;;;;20.60;55.50;;;;;;5072380;28;1309;-66
2020/12/24 04:14:58;;;;;;;;;;;20.60;55.40;;;;;;5071122;28;1443;-66
2020/12/24 04:17:25;;;;;;;;;;;20.70;55.40;;;;;;5071776;28;1375;-66
2020/12/24 04:19:51;;;;;;;;;;;20.70;55.30;;;;;;5053971;28;1308;-66
2020/12/24 04:22:16;;;;;;;;;;;20.80;55.20;;;;;;5072062;28;1295;-67
2020/12/24 04:24:41;;;;;;;;;;;20.90;55.10;;;;;;5071265;28;1382;-67
2020/12/24 04:27:07;;;;;;;;;;;21.00;55.00;;;;;;5071706;28;1898;-67
2020/12/24 04:29:32;;;;;;;;;;;21.00;54.70;;;;;;5071638;28;1375;-67
2020/12/24 04:31:58;;;;;;;;;;;21.10;54.60;;;;;;5072251;28;1268;-67
2020/12/24 04:34:23;;;;;;;;;;;21.20;54.40;;;;;;5073676;28;1478;-67
2020/12/24 04:36:49;;;;;;;;;;;21.30;54.20;;;;;;5075181;28;1356;-67
2020/12/24 04:39:15;;;;;;;;;;;21.40;54.10;;;;;;5057711;28;1268;-67
2020/12/24 04:41:40;;;;;;;;;;;21.40;53.90;;;;;;5075408;28;1257;-67
2020/12/24 04:44:06;;;;;;;;;;;21.50;53.70;;;;;;5057322;28;1447;-67
2020/12/24 04:46:31;;;;;;;;;;;21.50;53.50;;;;;;5057647;28;1894;-67
2020/12/24 04:48:58;;;;;;;;;;;21.60;53.50;;;;;;5057935;28;1421;-66
2020/12/24 04:51:23;;;;;;;;;;;21.60;53.40;;;;;;5045314;28;1186;-66
2020/12/24 04:53:49;;;;;;;;;;;21.70;53.30;;;;;;5056073;28;1306;-66
2020/12/24 04:56:14;;;;;;;;;;;21.70;53.20;;;;;;5074758;28;1708;-66
2020/12/24 04:58:43;;;;;;;;;;;21.70;53.10;;;;;;5075278;28;1348;-66
2020/12/24 05:01:15;;;;;;;;;;;21.80;53.00;;;;;;5057399;28;1324;-66
2020/12/24 05:03:41;;;;;;;;;;;21.80;52.90;;;;;;5074806;28;1398;-66
2020/12/24 05:06:09;;;;;;;;;;;21.80;52.90;;;;;;5056689;28;1969;-66
2020/12/24 05:08:34;;;;;;;;;;;21.90;52.80;;;;;;5057346;28;1435;-66
2020/12/24 05:11:03;;;;;;;;;;;21.90;52.80;;;;;;5075093;28;1315;-66
2020/12/24 05:13:29;;;;;;;;;;;21.90;52.70;;;;;;5074887;28;1127;-66
2020/12/24 05:15:54;;;;;;;;;;;21.90;52.70;;;;;;5074352;28;1219;-65
2020/12/24 05:18:23;;;;;;;;;;;22.00;52.70;;;;;;5074976;28;1305;-65
2020/12/24 05:20:49;;;;;;;;;;;22.00;52.60;;;;;;5075309;28;1271;-65
2020/12/24 05:23:15;;;;;;;;;;;22.00;52.60;;;;;;5056854;28;1299;-66
2020/12/24 05:25:40;;;;;;;;;;;22.00;52.60;;;;;;5074244;28;1964;-66
2020/12/24 05:28:06;;;;;;;;;;;22.00;52.50;;;;;;5074335;28;1099;-66
2020/12/24 05:30:31;;;;;;;;;;;22.10;52.50;;;;;;5074509;28;1180;-65
2020/12/24 05:32:57;;;;;;;;;;;22.10;52.50;;;;;;5074746;28;1275;-65
2020/12/24 05:35:23;;;;;;;;;;;22.10;52.50;;;;;;5074326;28;1293;-65
2020/12/24 05:37:50;;;;;;;;;;;22.10;52.50;;;;;;5056126;28;1103;-65
2020/12/24 05:40:18;;;;;;;;;;;22.20;52.50;;;;;;5074779;28;1318;-65
2020/12/24 05:42:50;;;;;;;;;;;22.20;52.40;;;;;;5074441;28;1432;-66
2020/12/24 05:45:19;;;;;;;;;;;22.20;52.40;;;;;;5073503;28;1324;-66
2020/12/24 05:47:44;;;;;;;;;;;22.20;52.40;;;;;;5075474;28;1959;-66
2020/12/24 05:50:25;;;;;;;;;;;22.20;52.40;;;;;;5074757;28;1319;-66
2020/12/24 05:53:09;;;;;;;;;;;22.20;52.40;;;;;;5057116;28;1287;-66
2020/12/24 05:55:35;;;;;;;;;;;22.20;52.30;;;;;;5058492;28;1860;-64
2020/12/24 05:58:01;;;;;;;;;;;22.20;52.40;;;;;;5050076;28;1237;-65
2020/12/24 06:00:30;;;;;;;;;;;22.20;52.30;;;;;;5055437;28;1318;-65
2020/12/24 06:02:55;;;;;;;;;;;22.20;52.30;;;;;;5073547;28;1339;-65
2020/12/24 06:05:22;;;;;;;;;;;22.20;52.40;;;;;;5055336;28;1320;-65
2020/12/24 06:07:50;;;;;;;;;;;22.20;52.40;;;;;;5054421;28;1902;-65
2020/12/24 06:10:16;;;;;;;;;;;22.20;52.40;;;;;;5055137;28;1319;-65
2020/12/24 06:12:48;;;;;;;;;;;22.20;52.40;;;;;;5054587;28;1368;-65
2020/12/24 06:15:14;;;;;;;;;;;22.20;52.50;;;;;;5068885;28;1294;-65
2020/12/24 06:17:40;;;;;;;;;;;22.20;52.50;;;;;;5054472;28;1396;-65
2020/12/24 06:20:05;;;;;;;;;;;22.20;52.50;;;;;;5055887;28;1365;-65
2020/12/24 06:22:30;;;;;;;;;;;22.10;52.60;;;;;;5055364;28;1378;-65
2020/12/24 06:24:56;;;;;;;;;;;22.10;52.60;;;;;;5072386;28;1389;-64
2020/12/24 06:27:38;;;;;;;;;;;22.10;52.70;;;;;;5054325;28;1898;-65
2020/12/24 06:30:04;;;;;;;;;;;22.10;52.70;;;;;;5055412;28;1366;-65
2020/12/24 06:32:31;;;;;;;;;;;22.10;52.80;;;;;;5073909;28;1317;-65
2020/12/24 06:34:57;;;;;;;;;;;22.10;52.80;;;;;;5055241;28;1266;-66
2020/12/24 06:37:22;;;;;;;;;;;22.00;52.80;;;;;;5072616;28;1354;-65
2020/12/24 06:39:51;;;;;;;;;;;22.00;52.90;;;;;;5072448;28;1331;-64
2020/12/24 06:42:35;;;;;;;;;;;21.90;52.80;;;;;;5072668;28;1338;-65
2020/12/24 06:45:01;;;;;;;;;;;22.00;52.90;;;;;;5072720;28;1313;-66
2020/12/24 06:47:26;;;;;;;;;;;21.90;52.90;;;;;;5072130;28;1944;-65
2020/12/24 06:49:51;;;;;;;;;;;21.90;53.00;;;;;;5072564;28;1269;-64
2020/12/24 06:52:30;;;;;;;;;;;21.90;53.00;;;;;;5072053;28;1364;-65
2020/12/24 06:55:11;;;;;;;;;;;21.90;53.10;;;;;;5071807;28;1356;-65
2020/12/24 06:57:36;;;;;;;;;;;21.90;53.10;;;;;;5072053;28;1278;-65
2020/12/24 07:00:17;;;;;;;;;;;21.90;53.20;;;;;;5067665;28;1404;-64
2020/12/24 07:02:43;;;;;;;;;;;21.80;53.10;;;;;;5065069;28;1946;-65
2020/12/24 07:05:28;;;;;;;;;;;21.80;53.20;;;;;;5071955;28;1288;-65
2020/12/24 07:07:54;;;;;;;;;;;21.80;53.20;;;;;;5069915;28;1997;-65
2020/12/24 07:10:38;;;;;;;;;;;21.80;53.30;;;;;;5072634;28;1271;-65
2020/12/24 07:13:03;;;;;;;;;;;21.80;53.30;;;;;;5071916;28;1275;-64
2020/12/24 07:15:30;;;;;;;;;;;21.80;53.40;;;;;;5041445;28;1327;-64
2020/12/24 07:17:55;;;;;;;;;;;21.70;53.40;;;;;;5070028;28;1259;-65
2020/12/24 07:20:21;;;;;;;;;;;21.70;53.50;;;;;;5070894;28;1074;-64
2020/12/24 07:22:46;;;;;;;;;;;21.70;53.50;;;;;;5033648;28;1311;-64
2020/12/24 07:25:12;;;;;;;;;;;21.70;53.50;;;;;;5049572;28;1314;-65
2020/12/24 07:27:47;;;;;;;;;;;21.70;53.50;;;;;;5068395;28;1965;-65
2020/12/24 07:30:12;;;;;;;;;;;21.70;53.60;;;;;;5070989;28;1338;-65
2020/12/24 07:32:38;;;;;;;;;;;21.70;53.60;;;;;;5052251;28;1359;-65
2020/12/24 07:35:03;;;;;;;;;;;21.70;53.60;;;;;;5071113;28;1301;-66
2020/12/24 07:37:29;;;;;;;;;;;21.60;53.60;;;;;;5070948;28;1161;-65
2020/12/24 07:39:56;;;;;;;;;;;21.60;53.60;;;;;;5053351;28;1166;-65
2020/12/24 07:42:24;;;;;;;;;;;21.60;53.70;;;;;;5069877;28;1339;-65
2020/12/24 07:44:50;;;;;;;;;;;21.60;53.70;;;;;;5070972;28;1299;-65
2020/12/24 07:47:15;;;;;;;;;;;21.60;53.70;;;;;;5070466;28;1902;-66
2020/12/24 07:49:50;;;;;;;;;;;21.60;53.80;;;;;;5071225;28;1295;-66
2020/12/24 07:52:15;;;;;;;;;;;21.60;53.80;;;;;;5053488;28;1353;-64
2020/12/24 07:54:41;;;;;;;;;;;21.50;53.80;;;;;;5051821;28;1054;-66
2020/12/24 07:57:06;;;;;;;;;;;21.50;53.80;;;;;;5069736;28;1339;-65
2020/12/24 07:59:32;;;;;;;;;;;21.50;53.90;;;;;;5071962;28;1272;-65
2020/12/24 08:02:03;;;;;;;;;;;21.50;53.90;;;;;;5071614;28;1279;-65
2020/12/24 08:04:29;;;;;;;;;;;21.50;54.00;;;;;;5070703;28;1247;-66
2020/12/24 08:06:54;;;;;;;;;;;21.50;54.00;;;;;;5070769;28;1910;-66
2020/12/24 08:09:20;;;;;;;;;;;21.50;54.00;;;;;;5074029;28;1347;-65
2020/12/24 08:11:55;;;;;;;;;;;21.50;54.00;;;;;;5074937;28;1357;-65
2020/12/24 08:14:21;;;;;;;;;;;21.50;54.00;;;;;;5075448;28;1119;-65
2020/12/24 08:16:47;;;;;;;;;;;21.60;54.00;;;;;;5057619;28;1343;-65
2020/12/24 08:19:13;;;;;;;;;;;21.60;53.90;;;;;;5058107;28;1294;-64
2020/12/24 08:21:44;;;;;;;;;;;21.60;53.80;;;;;;5058462;28;1315;-65
2020/12/24 08:24:10;;;;;;;;;;;21.70;53.70;;;;;;5057514;28;1319;-65
2020/12/24 08:26:35;;;;;;;;;;;21.70;53.50;;;;;;5075601;28;1961;-66
2020/12/24 08:29:01;;;;;;;;;;;21.80;53.40;;;;;;5075760;28;1291;-65
2020/12/24 08:31:28;;;;;;;;;;;21.80;53.30;;;;;;5058209;28;1371;-65
2020/12/24 08:33:54;;;;;;;;;;;21.90;53.20;;;;;;5057445;28;1394;-66
2020/12/24 08:36:29;;;;;;;;;;;22.00;53.10;;;;;;5058038;28;1343;-65
2020/12/24 08:39:04;;;;;;;;;;;22.00;53.00;;;;;;5075692;28;1201;-64
2020/12/24 08:41:29;;;;;;;;;;;22.10;52.90;;;;;;5058002;28;1277;-65
2020/12/24 08:43:55;;;;;;;;;;;22.10;52.80;;;;;;5057251;28;1074;-65
2020/12/24 08:46:21;;;;;;;;;;;22.10;52.70;;;;;;5075246;28;1906;-65
2020/12/24 08:48:46;;;;;;;;;;;22.10;52.70;;;;;;5075469;28;1083;-64
2020/12/24 08:51:13;;;;;;;;;;;22.20;52.60;;;;;;5075508;28;1253;-64
2020/12/24 08:53:38;;;;;;;;;;;22.20;52.60;;;;;;5057205;28;1356;-65
2020/12/24 08:56:13;;;;;;;;;;;22.20;52.50;;;;;;5057121;28;1373;-64
2020/12/24 08:58:46;;;;;;;;;;;22.20;52.50;;;;;;5075124;28;1409;-65
2020/12/24 09:01:11;;;;;;;;;;;22.20;52.50;;;;;;5075378;28;1318;-65
2020/12/24 09:03:36;;;;;;;;;;;22.20;52.40;;;;;;5074734;28;1362;-64
2020/12/24 09:06:08;;;;;;;;;;;22.30;52.50;;;;;;5074381;28;1961;-65
2020/12/24 09:08:33;;;;;;;;;;;22.20;52.40;;;;;;5075326;28;1372;-65
2020/12/24 09:10:59;;;;;;;;;;;22.20;52.40;;;;;;5075041;28;1299;-65
2020/12/24 09:13:24;;;;;;;;;;;22.30;52.50;;;;;;5074711;28;1272;-65
2020/12/24 09:15:50;;;;;;;;;;;22.20;52.40;;;;;;5074668;28;1369;-65
2020/12/24 09:18:15;;;;;;;;;;;22.20;52.40;;;;;;5074966;28;1319;-65
2020/12/24 09:20:41;;;;;;;;;;;22.20;52.50;;;;;;5056854;28;1277;-65
2020/12/24 09:23:07;;;;;;;;;;;22.20;52.50;;;;;;5075178;28;1311;-64
2020/12/24 09:25:36;;;;;;;;;;;22.20;52.60;;;;;;5056317;28;1729;-65
2020/12/24 09:28:05;;;;;;;;;;;22.20;52.60;;;;;;5075081;28;1279;-65
2020/12/24 09:30:30;;;;;;;;;;;22.20;52.60;;;;;;5056966;28;1288;-66
2020/12/24 09:32:56;;;;;;;;;;;22.20;52.70;;;;;;5056916;28;1319;-67
2020/12/24 09:35:22;;;;;;;;;;;22.20;52.70;;;;;;5056227;28;1395;-66
2020/12/24 09:37:48;;;;;;;;;;;22.20;52.80;;;;;;5056976;28;1381;-66
2020/12/24 09:40:14;;;;;;;;;;;22.10;52.80;;;;;;5056766;28;1264;-66
2020/12/24 09:42:39;;;;;;;;;;;22.10;52.80;;;;;;5074454;28;1306;-64
2020/12/24 09:45:05;;;;;;;;;;;22.10;52.90;;;;;;5056358;28;1349;-65
2020/12/24 09:47:30;;;;;;;;;;;22.10;52.90;;;;;;5073909;28;1959;-65
2020/12/24 09:49:56;;;;;;;;;;;22.10;53.50;;;;;;5074530;28;1311;-67
2020/12/24 09:52:21;;;;;;;;;;;22.10;53.00;;;;;;5074113;28;1338;-66
2020/12/24 09:54:47;;;;;;;;;;;22.00;53.00;;;;;;5073931;28;1374;-66
2020/12/24 09:57:12;;;;;;;;;;;22.00;53.10;;;;;;5056098;28;1719;-67
2020/12/24 09:59:40;;;;;;;;;;;22.00;53.10;;;;;;5074554;28;1280;-65
2020/12/24 10:02:06;;;;;;;;;;;22.00;53.10;;;;;;5074623;28;1364;-65
2020/12/24 10:04:31;;;;;;;;;;;22.00;53.10;;;;;;5073944;28;1287;-66
2020/12/24 10:06:57;;;;;;;;;;;22.00;53.10;;;;;;5073622;28;1897;-66
2020/12/24 10:09:25;;;;;;;;;;;22.00;53.10;;;;;;5074339;28;1386;-67
2020/12/24 10:11:50;;;;;;;;;;;22.00;53.10;;;;;;5074048;28;1427;-66
2020/12/24 10:14:16;;;;;;;;;;;22.00;53.00;;;;;;5073470;28;1130;-65
2020/12/24 10:16:42;;;;;;;;;;;22.10;53.00;;;;;;5073665;28;1335;-66
2020/12/24 10:19:08;;;;;;;;;;;22.10;53.00;;;;;;5073746;28;1337;-66
2020/12/24 10:21:33;;;;;;;;;;;22.00;52.90;;;;;;5074223;28;1355;-66
2020/12/24 10:23:58;;;;;;;;;;;22.10;52.90;;;;;;5073021;28;1335;-66
2020/12/24 10:26:24;;;;;;;;;;;22.00;52.80;;;;;;5073445;28;1897;-66
2020/12/24 10:28:49;;;;;;;;;;;22.10;52.80;;;;;;5073694;28;1304;-66
2020/12/24 10:31:15;;;;;;;;;;;22.00;52.80;;;;;;5073131;28;1338;-66
2020/12/24 10:33:40;;;;;;;;;;;22.10;52.90;;;;;;5073862;28;1291;-66
2020/12/24 10:36:06;;;;;;;;;;;22.00;52.80;;;;;;5073496;28;1381;-66
2020/12/24 10:38:31;;;;;;;;;;;22.10;52.90;;;;;;5074055;28;1285;-66
2020/12/24 10:40:57;;;;;;;;;;;22.10;52.90;;;;;;5073473;28;1353;-67
2020/12/24 10:43:22;;;;;;;;;;;22.10;52.90;;;;;;5073440;28;1353;-66
2020/12/24 10:45:48;;;;;;;;;;;22.10;52.80;;;;;;5072592;28;1894;-66
2020/12/24 10:48:13;;;;;;;;;;;22.10;52.80;;;;;;5073019;28;1290;-65
2020/12/24 10:50:39;;;;;;;;;;;22.20;52.80;;;;;;5072962;28;1310;-66
2020/12/24 10:53:04;;;;;;;;;;;22.10;52.80;;;;;;5064387;28;1866;-65
2020/12/24 10:55:29;;;;;;;;;;;22.20;52.80;;;;;;5070974;28;1810;-66
2020/12/24 10:57:55;;;;;;;;;;;22.10;52.70;;;;;;5066955;28;974;-66
2020/12/24 11:00:20;;;;;;;;;;;22.20;52.80;;;;;;5072825;28;1329;-66
2020/12/24 11:02:46;;;;;;;;;;;22.20;52.70;;;;;;5069614;28;1262;-66
2020/12/24 11:05:11;;;;;;;;;;;22.20;52.70;;;;;;5053605;28;1486;-65
2020/12/24 11:07:37;;;;;;;;;;;22.20;52.70;;;;;;5072758;28;1914;-65
2020/12/24 11:10:03;;;;;;;;;;;22.20;52.60;;;;;;5055448;28;1475;-65
2020/12/24 11:12:28;;;;;;;;;;;22.30;52.70;;;;;;5072887;28;1095;-65
2020/12/24 11:14:54;;;;;;;;;;;22.20;52.60;;;;;;5072228;28;1154;-66
2020/12/24 11:17:19;;;;;;;;;;;22.30;52.60;;;;;;5072442;28;1417;-66
2020/12/24 11:19:45;;;;;;;;;;;22.30;52.60;;;;;;5072721;28;1159;-65
2020/12/24 11:22:10;;;;;;;;;;;22.30;52.60;;;;;;5055139;28;1106;-66
2020/12/24 11:24:36;;;;;;;;;;;22.30;52.50;;;;;;5072021;28;1116;-65
2020/12/24 11:27:01;;;;;;;;;;;22.30;52.50;;;;;;5072170;28;1901;-65
2020/12/24 11:29:26;;;;;;;;;;;22.30;52.50;;;;;;5072440;28;1107;-65
2020/12/24 11:31:54;;;;;;;;;;;22.30;52.50;;;;;;5072555;28;1338;-66
2020/12/24 11:34:19;;;;;;;;;;;22.30;52.50;;;;;;5054255;28;1178;-66
2020/12/24 11:36:45;;;;;;;;;;;22.30;52.50;;;;;;5072408;28;1458;-65
2020/12/24 11:39:10;;;;;;;;;;;22.40;52.50;;;;;;5069918;28;1099;-66
2020/12/24 11:41:36;;;;;;;;;;;22.40;52.50;;;;;;5060590;28;1974;-66
2020/12/24 11:44:01;;;;;;;;;;;22.40;52.50;;;;;;5070127;28;1251;-65
2020/12/24 11:46:27;;;;;;;;;;;22.40;52.50;;;;;;5052778;28;1968;-65
2020/12/24 11:48:52;;;;;;;;;;;22.40;52.50;;;;;;5071270;28;1040;-67
2020/12/24 11:51:18;;;;;;;;;;;22.40;52.50;;;;;;5071245;28;1213;-66
2020/12/24 11:53:48;;;;;;;;;;;22.40;52.40;;;;;;5070808;28;1120;-65
2020/12/24 11:56:14;;;;;;;;;;;22.40;52.50;;;;;;5070789;28;1317;-65
2020/12/24 11:58:40;;;;;;;;;;;22.40;52.50;;;;;;5071120;28;1127;-65
2020/12/24 12:01:06;;;;;;;;;;;22.40;52.40;;;;;;5071027;28;1076;-65
2020/12/24 12:03:31;;;;;;;;;;;22.40;52.40;;;;;;5071168;28;1134;-66
2020/12/24 12:05:57;;;;;;;;;;;22.40;52.40;;;;;;5070320;28;1973;-66
2020/12/24 12:08:23;;;;;;;;;;;22.40;52.40;;;;;;5053441;28;1341;-65
2020/12/24 12:10:48;;;;;;;;;;;22.40;52.40;;;;;;5071120;28;1056;-65
2020/12/24 12:13:14;;;;;;;;;;;22.40;52.50;;;;;;5070829;28;1040;-66
2020/12/24 12:15:39;;;;;;;;;;;22.40;52.40;;;;;;5071375;28;1365;-66
2020/12/24 12:18:07;;;;;;;;;;;22.40;52.50;;;;;;5072348;28;1060;-65
2020/12/24 12:20:33;;;;;;;;;;;22.40;52.50;;;;;;5071818;28;1123;-66
2020/12/24 12:22:58;;;;;;;;;;;22.40;52.50;;;;;;5052501;28;1084;-67
2020/12/24 12:25:27;;;;;;;;;;;22.40;52.50;;;;;;5059837;28;1401;-64
2020/12/24 12:27:52;;;;;;;;;;;22.40;52.60;;;;;;5050128;28;1894;-65
2020/12/24 12:30:18;;;;;;;;;;;22.30;52.50;;;;;;5069826;28;1245;-65
2020/12/24 12:32:43;;;;;;;;;;;22.40;52.60;;;;;;5051564;28;1309;-67
2020/12/24 12:35:09;;;;;;;;;;;22.30;52.60;;;;;;5069870;28;1213;-67
2020/12/24 12:37:35;;;;;;;;;;;22.30;52.70;;;;;;5070549;28;1242;-67
2020/12/24 12:40:04;;;;;;;;;;;22.30;52.70;;;;;;5070396;28;1275;-67
2020/12/24 12:42:30;;;;;;;;;;;22.30;52.80;;;;;;5070420;28;1343;-67
2020/12/24 12:44:56;;;;;;;;;;;22.30;52.80;;;;;;5070019;28;1321;-67
2020/12/24 12:47:21;;;;;;;;;;;22.30;52.90;;;;;;5070351;28;1906;-67
2020/12/24 12:49:47;;;;;;;;;;;22.20;52.80;;;;;;5069512;28;1382;-65
2020/12/24 12:52:12;;;;;;;;;;;22.20;52.90;;;;;;5070824;28;1257;-66
2020/12/24 12:54:38;;;;;;;;;;;22.20;52.90;;;;;;5071369;28;1099;-65
2020/12/24 12:57:03;;;;;;;;;;;22.20;52.90;;;;;;5073738;28;1302;-66
2020/12/24 12:59:29;;;;;;;;;;;22.20;53.00;;;;;;5074457;28;1060;-65
2020/12/24 13:01:54;;;;;;;;;;;22.20;53.10;;;;;;5069289;28;1846;-66
2020/12/24 13:04:23;;;;;;;;;;;22.20;53.10;;;;;;5065764;28;1922;-66
2020/12/24 13:06:48;;;;;;;;;;;22.10;53.10;;;;;;5045853;28;1967;-66
2020/12/24 13:09:14;;;;;;;;;;;22.10;53.10;;;;;;5056135;28;1134;-66
2020/12/24 13:11:39;;;;;;;;;;;22.10;53.20;;;;;;5055636;28;1265;-66
2020/12/24 13:14:05;;;;;;;;;;;22.10;53.20;;;;;;5044604;28;1354;-65
2020/12/24 13:16:30;;;;;;;;;;;22.10;53.30;;;;;;5072528;28;1289;-66
2020/12/24 13:18:56;;;;;;;;;;;22.10;53.30;;;;;;5055827;28;1150;-65
2020/12/24 13:21:24;;;;;;;;;;;22.10;53.30;;;;;;5055817;28;1139;-67
2020/12/24 13:23:50;;;;;;;;;;;22.10;53.40;;;;;;5072883;28;1056;-66
2020/12/24 13:26:15;;;;;;;;;;;22.00;53.30;;;;;;5073511;28;1902;-66
2020/12/24 13:28:41;;;;;;;;;;;22.00;53.40;;;;;;5052311;28;1417;-65
2020/12/24 13:31:06;;;;;;;;;;;22.00;53.40;;;;;;5054322;28;1037;-66
2020/12/24 13:33:32;;;;;;;;;;;22.00;53.40;;;;;;5065119;28;1036;-66
2020/12/24 13:35:57;;;;;;;;;;;22.00;53.50;;;;;;5073108;28;1303;-66
2020/12/24 13:38:23;;;;;;;;;;;21.90;53.50;;;;;;5070881;28;942;-66
2020/12/24 13:40:48;;;;;;;;;;;21.90;53.50;;;;;;5073546;28;1232;-65
2020/12/24 13:43:14;;;;;;;;;;;21.90;53.50;;;;;;5073569;28;1066;-66
2020/12/24 13:45:40;;;;;;;;;;;21.90;53.50;;;;;;5073427;28;1272;-67
2020/12/24 13:48:06;;;;;;;;;;;21.90;53.60;;;;;;5073174;28;1902;-65
2020/12/24 13:50:32;;;;;;;;;;;21.90;53.60;;;;;;5067933;28;1088;-65
2020/12/24 13:52:58;;;;;;;;;;;21.90;53.70;;;;;;5065010;28;1131;-66
2020/12/24 13:55:23;;;;;;;;;;;21.80;53.70;;;;;;5072393;28;1247;-66
2020/12/24 13:57:49;;;;;;;;;;;21.80;53.70;;;;;;5073083;28;1060;-66
2020/12/24 14:00:14;;;;;;;;;;;21.80;53.70;;;;;;5072707;28;1095;-66
2020/12/24 14:02:39;;;;;;;;;;;21.80;53.80;;;;;;5073011;28;1331;-65
2020/12/24 14:05:05;;;;;;;;;;;21.80;53.80;;;;;;5073017;28;1279;-65
2020/12/24 14:07:30;;;;;;;;;;;21.80;53.80;;;;;;5072288;28;1906;-65
2020/12/24 14:09:56;;;;;;;;;;;21.80;53.80;;;;;;5072786;28;1087;-65
2020/12/24 14:12:22;;;;;;;;;;;21.70;53.80;;;;;;5072713;28;1340;-66
2020/12/24 14:14:47;;;;;;;;;;;21.70;53.90;;;;;;5041655;28;1242;-66
2020/12/24 14:17:13;;;;;;;;;;;21.80;53.90;;;;;;5070774;28;1326;-66
2020/12/24 14:19:38;;;;;;;;;;;21.70;53.90;;;;;;5071746;28;1048;-65
2020/12/24 14:22:04;;;;;;;;;;;21.70;54.00;;;;;;5071849;28;941;-66
2020/12/24 14:24:32;;;;;;;;;;;21.70;54.00;;;;;;5069253;28;1036;-65